CDT,Max TemperatureF,Mean TemperatureF,Min TemperatureF,Max Dew PointF,MeanDew PointF,Min DewpointF,Max Humidity, Mean Humidity, Min Humidity, Max Sea Level PressureIn, Mean Sea Level PressureIn, Min Sea Level PressureIn, Max VisibilityMiles, Mean VisibilityMiles, Min VisibilityMiles, Max Wind SpeedMPH, Mean Wind SpeedMPH, Max Gust SpeedMPH,PrecipitationIn, CloudCover, Events, WindDirDegrees
2013-4-1,75,60,45,51,46,38,100,76,27,30.10,30.04,29.98,10,6,0,13,2,,0.00,1,Fog-Rain,151
2013-4-2,57,48,39,47,37,30,93,75,46,30.21,30.17,30.10,10,8,3,17,10,25,0.78,6,Rain,77
2013-4-3,48,42,37,35,29,23,89,60,39,30.22,30.17,30.14,10,10,10,17,11,25,0.00,8,,73
2013-4-4,46,44,41,43,38,28,93,83,50,30.12,30.09,30.06,10,7,2,9,4,,0.58,8,Rain,328
2013-4-5,70,53,37,45,37,28,100,74,22,30.22,30.14,30.08,10,6,0,6,4,,0.00,1,Fog-Snow,254
2013-4-6,75,62,48,49,43,39,71,50,31,30.08,29.98,29.86,10,10,10,14,7,22,0.00,0,,174
2013-4-7,71,66,60,55,54,50,78,66,55,30.00,29.93,29.85,10,10,10,10,6,,0.00,7,,186
2013-4-8,80,71,62,59,57,53,81,65,43,29.90,29.83,29.76,10,10,10,15,9,24,0.00,6,,166
2013-4-9,84,74,64,66,61,57,84,65,41,29.89,29.83,29.76,10,10,10,17,10,25,0.00,5,,169
2013-4-10,80,62,44,70,59,40,96,85,64,29.86,29.75,29.57,10,8,1,18,9,36,0.74,8,Rain-Thunderstorm,200
2013-4-11,61,50,39,40,35,29,89,68,32,29.86,29.81,29.73,10,10,10,12,7,20,0.00,4,,315
2013-4-12,72,54,37,43,37,28,93,57,21,30.00,29.93,29.86,10,10,10,12,3,17,0.00,0,,297
2013-4-13,77,60,44,49,41,35,82,52,30,30.09,29.98,29.87,10,10,10,10,3,,0.00,0,,123
2013-4-14,78,66,55,57,52,49,77,58,40,29.85,29.73,29.62,10,10,10,10,7,18,0.00,0,,135
2013-4-15,81,72,62,65,61,58,94,78,52,29.88,29.81,29.74,10,10,6,10,5,,0.00,3,,149
2013-4-16,87,78,71,70,67,64,88,74,49,30.00,29.93,29.84,10,8,5,13,7,24,0.00,5,,176
2013-4-17,84,78,72,70,68,63,91,74,48,30.01,29.91,29.75,10,10,7,17,5,23,0.00,5,,169
2013-4-18,75,60,45,68,57,33,96,85,63,29.98,29.76,29.68,10,7,0,20,9,33,1.19,8,Fog-Rain-Thunderstorm,262
2013-4-19,57,47,37,37,28,24,86,50,28,30.17,30.10,30.01,10,10,10,14,9,24,0.00,1,,301
2013-4-20,69,52,36,43,36,32,93,58,27,30.26,30.19,30.13,10,10,10,9,2,,0.00,0,,124
2013-4-21,71,58,46,42,38,34,77,49,27,30.30,30.22,30.15,10,10,10,13,6,24,0.00,0,,110
2013-4-22,75,58,42,46,43,39,90,57,31,30.21,30.08,29.96,10,10,10,10,3,18,0.00,0,,150
2013-4-23,73,62,48,59,51,41,83,68,54,30.01,29.96,29.87,10,10,10,16,6,31,0.00,6,Rain,209
2013-4-24,62,52,41,41,38,33,93,70,36,30.32,30.19,30.01,10,9,2,12,7,25,0.13,5,Rain,334
2013-4-25,71,53,36,42,37,32,93,60,25,30.39,30.32,30.27,10,10,10,10,3,16,0.00,0,,123
2013-4-26,61,56,51,52,48,39,94,78,51,30.29,30.23,30.15,10,7,1,13,7,20,0.16,7,Rain-Thunderstorm,109
2013-4-27,77,66,55,66,57,52,100,90,64,30.14,30.03,29.95,10,7,2,12,5,23,0.50,8,Rain-Thunderstorm,91
2013-4-28,77,65,53,55,51,49,90,72,37,30.04,29.98,29.91,10,10,10,9,4,18,0.00,4,,306
2013-4-29,84,66,51,62,56,49,96,69,39,29.96,29.90,29.83,10,10,8,10,2,,0.00,0,,167
2013-4-30,82,70,57,59,55,49,87,59,31,29.90,29.86,29.82,10,10,10,9,5,16,0.00,0,,120